sensor_id;sensor_type;location;lat;lon;timestamp;pressure;altitude;pressure_sealevel;temperature;humidity
47897;BME280;39629;51.400;5.494;2023-04-04T00:04:54;102791.03;;;-0.60;100.00
47897;BME280;39629;51.400;5.494;2023-04-04T00:09:56;102784.19;;;-0.72;100.00
47897;BME280;39629;51.400;5.494;2023-04-04T00:14:57;102780.94;;;-0.69;100.00
47897;BME280;39629;51.400;5.494;2023-04-04T00:20:01;102789.75;;;-0.89;100.00
47897;BME280;39629;51.400;5.494;2023-04-04T00:25:04;102787.50;;;-0.96;100.00
47897;BME280;39629;51.400;5.494;2023-04-04T00:30:06;102790.53;;;-1.02;100.00
47897;BME280;39629;51.400;5.494;2023-04-04T00:35:09;102795.84;;;-0.89;100.00
47897;BME280;39629;51.400;5.494;2023-04-04T00:40:11;102796.44;;;-0.57;100.00
47897;BME280;39629;51.400;5.494;2023-04-04T00:45:14;102799.44;;;-0.87;100.00
47897;BME280;39629;51.400;5.494;2023-04-04T00:50:17;102810.31;;;-1.02;100.00
47897;BME280;39629;51.400;5.494;2023-04-04T00:55:18;102809.38;;;-1.15;100.00
47897;BME280;39629;51.400;5.494;2023-04-04T01:00:20;102806.19;;;-1.23;100.00
47897;BME280;39629;51.400;5.494;2023-04-04T01:05:24;102806.38;;;-1.31;100.00
47897;BME280;39629;51.400;5.494;2023-04-04T01:10:25;102803.63;;;-1.45;100.00
47897;BME280;39629;51.400;5.494;2023-04-04T01:15:27;102804.97;;;-1.50;100.00
47897;BME280;39629;51.400;5.494;2023-04-04T01:20:32;102808.63;;;-1.58;100.00
47897;BME280;39629;51.400;5.494;2023-04-04T01:25:38;102796.50;;;-1.59;100.00
47897;BME280;39629;51.400;5.494;2023-04-04T01:30:46;102794.34;;;-1.65;100.00
47897;BME280;39629;51.400;5.494;2023-04-04T01:35:52;102783.53;;;-1.71;100.00
47897;BME280;39629;51.400;5.494;2023-04-04T01:41:01;102778.34;;;-1.71;100.00
47897;BME280;39629;51.400;5.494;2023-04-04T01:46:06;102782.41;;;-1.75;100.00
47897;BME280;39629;51.400;5.494;2023-04-04T01:51:08;102772.22;;;-1.83;100.00
47897;BME280;39629;51.400;5.494;2023-04-04T01:56:11;102775.09;;;-1.91;100.00
47897;BME280;39629;51.400;5.494;2023-04-04T02:01:13;102769.59;;;-1.95;100.00
47897;BME280;39629;51.400;5.494;2023-04-04T02:06:15;102780.34;;;-2.01;100.00
47897;BME280;39629;51.400;5.494;2023-04-04T02:11:19;102774.75;;;-1.95;100.00
47897;BME280;39629;51.400;5.494;2023-04-04T02:16:22;102774.50;;;-2.20;100.00
47897;BME280;39629;51.400;5.494;2023-04-04T02:21:25;102777.31;;;-2.17;100.00
47897;BME280;39629;51.400;5.494;2023-04-04T02:26:28;102780.25;;;-2.13;100.00
47897;BME280;39629;51.400;5.494;2023-04-04T02:31:29;102789.09;;;-2.31;100.00
47897;BME280;39629;51.400;5.494;2023-04-04T02:36:31;102778.00;;;-2.30;100.00
47897;BME280;39629;51.400;5.494;2023-04-04T02:41:34;102778.06;;;-2.18;100.00
47897;BME280;39629;51.400;5.494;2023-04-04T02:46:36;102778.13;;;-2.29;100.00
47897;BME280;39629;51.400;5.494;2023-04-04T02:51:41;102777.28;;;-2.50;100.00
47897;BME280;39629;51.400;5.494;2023-04-04T02:56:44;102783.47;;;-2.48;100.00
47897;BME280;39629;51.400;5.494;2023-04-04T03:01:46;102777.53;;;-2.57;100.00
47897;BME280;39629;51.400;5.494;2023-04-04T03:06:48;102786.03;;;-2.48;100.00
47897;BME280;39629;51.400;5.494;2023-04-04T03:11:52;102772.50;;;-2.45;100.00
47897;BME280;39629;51.400;5.494;2023-04-04T03:16:54;102777.66;;;-2.45;100.00
47897;BME280;39629;51.400;5.494;2023-04-04T03:21:56;102784.63;;;-2.54;100.00
47897;BME280;39629;51.400;5.494;2023-04-04T03:26:59;102771.88;;;-2.53;100.00
47897;BME280;39629;51.400;5.494;2023-04-04T03:32:02;102780.91;;;-2.58;100.00
47897;BME280;39629;51.400;5.494;2023-04-04T03:37:03;102775.50;;;-2.61;100.00
47897;BME280;39629;51.400;5.494;2023-04-04T03:42:06;102775.25;;;-2.64;100.00
47897;BME280;39629;51.400;5.494;2023-04-04T03:47:08;102771.91;;;-2.73;100.00
47897;BME280;39629;51.400;5.494;2023-04-04T03:52:10;102768.31;;;-2.76;100.00
47897;BME280;39629;51.400;5.494;2023-04-04T03:57:13;102765.22;;;-2.71;100.00
47897;BME280;39629;51.400;5.494;2023-04-04T04:02:16;102755.78;;;-2.71;100.00
47897;BME280;39629;51.400;5.494;2023-04-04T04:07:19;102755.03;;;-2.70;100.00
47897;BME280;39629;51.400;5.494;2023-04-04T04:12:22;102754.38;;;-2.78;100.00
47897;BME280;39629;51.400;5.494;2023-04-04T04:17:25;102765.09;;;-2.73;100.00
47897;BME280;39629;51.400;5.494;2023-04-04T04:22:28;102761.91;;;-2.91;100.00
47897;BME280;39629;51.400;5.494;2023-04-04T04:27:31;102766.00;;;-2.83;100.00
47897;BME280;39629;51.400;5.494;2023-04-04T04:32:33;102754.94;;;-2.92;100.00
47897;BME280;39629;51.400;5.494;2023-04-04T04:37:35;102770.91;;;-2.96;100.00
47897;BME280;39629;51.400;5.494;2023-04-04T04:42:44;102760.38;;;-2.99;100.00
47897;BME280;39629;51.400;5.494;2023-04-04T04:47:47;102753.94;;;-2.94;100.00
47897;BME280;39629;51.400;5.494;2023-04-04T04:52:51;102749.94;;;-3.01;100.00
47897;BME280;39629;51.400;5.494;2023-04-04T04:57:54;102754.94;;;-2.92;100.00
47897;BME280;39629;51.400;5.494;2023-04-04T05:03:00;102760.75;;;-3.05;100.00
47897;BME280;39629;51.400;5.494;2023-04-04T05:08:10;102774.53;;;-3.15;100.00
47897;BME280;39629;51.400;5.494;2023-04-04T05:13:21;102788.16;;;-3.05;100.00
47897;BME280;39629;51.400;5.494;2023-04-04T05:18:24;102800.28;;;-3.15;100.00
47897;BME280;39629;51.400;5.494;2023-04-04T05:23:27;102800.91;;;-3.07;100.00
47897;BME280;39629;51.400;5.494;2023-04-04T05:28:31;102795.78;;;-3.07;100.00
47897;BME280;39629;51.400;5.494;2023-04-04T05:33:36;102778.41;;;-2.99;100.00
47897;BME280;39629;51.400;5.494;2023-04-04T05:38:55;102787.66;;;-2.91;100.00
47897;BME280;39629;51.400;5.494;2023-04-04T05:44:04;102784.03;;;-2.72;100.00
47897;BME280;39629;51.400;5.494;2023-04-04T05:49:05;102791.63;;;-2.64;100.00
47897;BME280;39629;51.400;5.494;2023-04-04T05:54:10;102803.44;;;-2.45;100.00
47897;BME280;39629;51.400;5.494;2023-04-04T05:59:14;102801.16;;;-2.20;100.00
47897;BME280;39629;51.400;5.494;2023-04-04T06:04:27;102809.03;;;-1.86;100.00
47897;BME280;39629;51.400;5.494;2023-04-04T06:09:31;102801.53;;;-1.39;100.00
47897;BME280;39629;51.400;5.494;2023-04-04T06:14:34;102795.47;;;-0.93;100.00
47897;BME280;39629;51.400;5.494;2023-04-04T06:19:38;102793.75;;;-0.47;100.00
47897;BME280;39629;51.400;5.494;2023-04-04T06:24:39;102805.41;;;-0.05;100.00
47897;BME280;39629;51.400;5.494;2023-04-04T06:29:43;102809.63;;;0.30;100.00
47897;BME280;39629;51.400;5.494;2023-04-04T06:34:49;102812.00;;;0.64;100.00
47897;BME280;39629;51.400;5.494;2023-04-04T06:39:57;102811.31;;;0.92;100.00
47897;BME280;39629;51.400;5.494;2023-04-04T06:45:02;102820.16;;;1.34;100.00
47897;BME280;39629;51.400;5.494;2023-04-04T06:50:05;102825.19;;;1.58;100.00
47897;BME280;39629;51.400;5.494;2023-04-04T06:55:07;102826.28;;;1.89;100.00
47897;BME280;39629;51.400;5.494;2023-04-04T07:00:12;102817.56;;;2.15;100.00
47897;BME280;39629;51.400;5.494;2023-04-04T07:05:14;102822.16;;;2.61;100.00
47897;BME280;39629;51.400;5.494;2023-04-04T07:10:17;102817.88;;;3.04;100.00
47897;BME280;39629;51.400;5.494;2023-04-04T07:15:20;102807.47;;;3.34;100.00
47897;BME280;39629;51.400;5.494;2023-04-04T07:20:22;102808.66;;;3.86;100.00
47897;BME280;39629;51.400;5.494;2023-04-04T07:25:23;102814.00;;;4.04;100.00
47897;BME280;39629;51.400;5.494;2023-04-04T07:30:26;102803.75;;;4.71;100.00
47897;BME280;39629;51.400;5.494;2023-04-04T07:35:32;102806.50;;;4.58;100.00
47897;BME280;39629;51.400;5.494;2023-04-04T07:40:33;102791.84;;;4.93;100.00
47897;BME280;39629;51.400;5.494;2023-04-04T07:45:36;102779.56;;;5.79;100.00
47897;BME280;39629;51.400;5.494;2023-04-04T07:50:38;102795.19;;;6.15;100.00
47897;BME280;39629;51.400;5.494;2023-04-04T07:55:39;102782.97;;;6.34;100.00
47897;BME280;39629;51.400;5.494;2023-04-04T08:00:42;102787.69;;;6.60;100.00
47897;BME280;39629;51.400;5.494;2023-04-04T08:05:44;102795.34;;;6.38;100.00
47897;BME280;39629;51.400;5.494;2023-04-04T08:10:45;102794.38;;;6.93;99.92
47897;BME280;39629;51.400;5.494;2023-04-04T08:15:49;102801.00;;;7.90;92.64
47897;BME280;39629;51.400;5.494;2023-04-04T08:20:51;102792.31;;;7.91;86.45
47897;BME280;39629;51.400;5.494;2023-04-04T08:25:53;102788.22;;;7.33;83.22
47897;BME280;39629;51.400;5.494;2023-04-04T08:30:56;102797.78;;;8.20;74.83
47897;BME280;39629;51.400;5.494;2023-04-04T08:35:58;102801.88;;;7.91;70.32
47897;BME280;39629;51.400;5.494;2023-04-04T08:40:59;102796.66;;;8.84;54.65
47897;BME280;39629;51.400;5.494;2023-04-04T08:46:03;102796.84;;;8.42;46.26
47897;BME280;39629;51.400;5.494;2023-04-04T08:51:06;102790.56;;;8.37;45.08
47897;BME280;39629;51.400;5.494;2023-04-04T08:56:11;102771.75;;;8.97;45.50
47897;BME280;39629;51.400;5.494;2023-04-04T09:01:14;102773.47;;;9.23;44.55
47897;BME280;39629;51.400;5.494;2023-04-04T09:06:16;102768.59;;;9.33;43.61
47897;BME280;39629;51.400;5.494;2023-04-04T09:11:21;102776.16;;;8.74;45.16
47897;BME280;39629;51.400;5.494;2023-04-04T09:16:25;102771.25;;;9.09;42.55
47897;BME280;39629;51.400;5.494;2023-04-04T09:21:26;102767.91;;;9.39;42.00
47897;BME280;39629;51.400;5.494;2023-04-04T09:26:45;102771.53;;;9.99;42.81
47897;BME280;39629;51.400;5.494;2023-04-04T09:31:49;102766.31;;;9.44;43.88
47897;BME280;39629;51.400;5.494;2023-04-04T09:36:52;102761.91;;;10.30;44.21
47897;BME280;39629;51.400;5.494;2023-04-04T09:41:53;102763.88;;;9.50;41.35
47897;BME280;39629;51.400;5.494;2023-04-04T09:47:22;102758.56;;;9.49;42.44
47897;BME280;39629;51.400;5.494;2023-04-04T09:52:24;102759.59;;;9.52;41.44
47897;BME280;39629;51.400;5.494;2023-04-04T09:57:27;102754.66;;;9.36;39.24
47897;BME280;39629;51.400;5.494;2023-04-04T10:02:30;102753.19;;;9.18;41.14
47897;BME280;39629;51.400;5.494;2023-04-04T10:07:32;102759.38;;;10.02;43.31
47897;BME280;39629;51.400;5.494;2023-04-04T10:12:35;102745.97;;;10.23;42.92
47897;BME280;39629;51.400;5.494;2023-04-04T10:17:40;102741.31;;;9.57;38.39
47897;BME280;39629;51.400;5.494;2023-04-04T10:22:42;102743.69;;;9.22;40.08
47897;BME280;39629;51.400;5.494;2023-04-04T10:27:44;102734.28;;;9.29;38.96
47897;BME280;39629;51.400;5.494;2023-04-04T10:32:55;102733.78;;;9.68;42.15
47897;BME280;39629;51.400;5.494;2023-04-04T10:37:59;102734.88;;;10.35;39.76
47897;BME280;39629;51.400;5.494;2023-04-04T10:43:03;102730.25;;;9.96;39.06
47897;BME280;39629;51.400;5.494;2023-04-04T10:48:06;102719.56;;;10.20;41.46
47897;BME280;39629;51.400;5.494;2023-04-04T10:53:09;102711.03;;;10.61;40.85
47897;BME280;39629;51.400;5.494;2023-04-04T10:58:11;102717.16;;;10.28;36.14
47897;BME280;39629;51.400;5.494;2023-04-04T11:03:14;102713.56;;;10.25;36.40
47897;BME280;39629;51.400;5.494;2023-04-04T11:08:16;102701.16;;;10.52;38.44
47897;BME280;39629;51.400;5.494;2023-04-04T11:13:24;102688.25;;;9.99;39.79
47897;BME280;39629;51.400;5.494;2023-04-04T11:18:47;102686.13;;;10.48;38.43
47897;BME280;39629;51.400;5.494;2023-04-04T11:24:12;102682.38;;;10.72;37.33
47897;BME280;39629;51.400;5.494;2023-04-04T11:29:50;102682.09;;;10.29;38.58
47897;BME280;39629;51.400;5.494;2023-04-04T11:34:55;102680.31;;;11.29;39.29
47897;BME280;39629;51.400;5.494;2023-04-04T11:40:08;102665.47;;;10.64;38.11
47897;BME280;39629;51.400;5.494;2023-04-04T11:45:17;102669.69;;;10.90;36.60
47897;BME280;39629;51.400;5.494;2023-04-04T11:50:21;102673.06;;;10.19;38.65
47897;BME280;39629;51.400;5.494;2023-04-04T11:55:22;102664.88;;;11.09;38.75
47897;BME280;39629;51.400;5.494;2023-04-04T12:00:29;102648.50;;;10.19;37.94
47897;BME280;39629;51.400;5.494;2023-04-04T12:05:33;102650.38;;;11.66;39.03
47897;BME280;39629;51.400;5.494;2023-04-04T12:10:35;102647.50;;;11.97;40.67
47897;BME280;39629;51.400;5.494;2023-04-04T12:15:37;102645.44;;;11.42;39.34
47897;BME280;39629;51.400;5.494;2023-04-04T12:20:40;102633.75;;;10.93;34.95
47897;BME280;39629;51.400;5.494;2023-04-04T12:25:47;102615.69;;;11.89;37.63
47897;BME280;39629;51.400;5.494;2023-04-04T12:30:54;102622.16;;;11.22;36.22
47897;BME280;39629;51.400;5.494;2023-04-04T12:35:57;102612.50;;;12.05;40.34
47897;BME280;39629;51.400;5.494;2023-04-04T12:40:59;102621.34;;;11.25;35.41
47897;BME280;39629;51.400;5.494;2023-04-04T12:46:01;102603.47;;;11.51;35.57
47897;BME280;39629;51.400;5.494;2023-04-04T12:51:04;102590.69;;;11.71;41.13
47897;BME280;39629;51.400;5.494;2023-04-04T12:56:07;102595.25;;;12.24;38.55
47897;BME280;39629;51.400;5.494;2023-04-04T13:01:09;102592.09;;;11.14;38.04
47897;BME280;39629;51.400;5.494;2023-04-04T13:06:15;102568.28;;;11.93;39.81
47897;BME280;39629;51.400;5.494;2023-04-04T13:11:16;102567.53;;;12.47;42.08
47897;BME280;39629;51.400;5.494;2023-04-04T13:16:29;102558.34;;;11.80;36.62
47897;BME280;39629;51.400;5.494;2023-04-04T13:21:33;102540.13;;;11.92;36.90
47897;BME280;39629;51.400;5.494;2023-04-04T13:26:35;102536.47;;;11.84;35.42
47897;BME280;39629;51.400;5.494;2023-04-04T13:31:36;102539.66;;;11.27;38.23
47897;BME280;39629;51.400;5.494;2023-04-04T13:36:40;102529.19;;;11.30;38.63
47897;BME280;39629;51.400;5.494;2023-04-04T13:41:41;102524.75;;;11.27;36.58
47897;BME280;39629;51.400;5.494;2023-04-04T13:46:43;102519.66;;;11.35;36.41
47897;BME280;39629;51.400;5.494;2023-04-04T13:51:47;102513.13;;;11.62;38.05
47897;BME280;39629;51.400;5.494;2023-04-04T13:56:48;102510.38;;;12.53;38.35
47897;BME280;39629;51.400;5.494;2023-04-04T14:01:51;102505.28;;;12.12;41.09
47897;BME280;39629;51.400;5.494;2023-04-04T14:06:54;102493.28;;;12.31;36.10
47897;BME280;39629;51.400;5.494;2023-04-04T14:11:55;102500.47;;;12.38;39.19
47897;BME280;39629;51.400;5.494;2023-04-04T14:16:57;102492.84;;;12.05;36.31
47897;BME280;39629;51.400;5.494;2023-04-04T14:22:00;102485.59;;;11.03;36.05
47897;BME280;39629;51.400;5.494;2023-04-04T14:27:01;102491.03;;;12.01;36.64
47897;BME280;39629;51.400;5.494;2023-04-04T14:32:03;102480.06;;;12.30;39.34
47897;BME280;39629;51.400;5.494;2023-04-04T14:37:06;102482.19;;;11.51;36.05
47897;BME280;39629;51.400;5.494;2023-04-04T14:42:07;102479.16;;;12.27;33.94
47897;BME280;39629;51.400;5.494;2023-04-04T14:47:09;102459.28;;;12.48;40.40
47897;BME280;39629;51.400;5.494;2023-04-04T14:52:12;102462.00;;;11.53;40.80
47897;BME280;39629;51.400;5.494;2023-04-04T14:57:13;102461.72;;;11.85;39.89
47897;BME280;39629;51.400;5.494;2023-04-04T15:02:15;102461.84;;;11.01;37.02
47897;BME280;39629;51.400;5.494;2023-04-04T15:07:18;102445.25;;;11.50;38.98
47897;BME280;39629;51.400;5.494;2023-04-04T15:12:23;102437.13;;;11.86;38.90
47897;BME280;39629;51.400;5.494;2023-04-04T15:17:25;102434.94;;;11.62;37.77
47897;BME280;39629;51.400;5.494;2023-04-04T15:22:27;102429.66;;;11.62;37.65
47897;BME280;39629;51.400;5.494;2023-04-04T15:27:29;102431.69;;;11.31;41.27
47897;BME280;39629;51.400;5.494;2023-04-04T15:32:31;102438.66;;;10.85;37.81
47897;BME280;39629;51.400;5.494;2023-04-04T15:37:34;102426.09;;;11.14;38.41
47897;BME280;39629;51.400;5.494;2023-04-04T15:42:35;102424.47;;;11.19;38.31
47897;BME280;39629;51.400;5.494;2023-04-04T15:47:37;102415.22;;;10.97;38.65
47897;BME280;39629;51.400;5.494;2023-04-04T15:52:40;102415.09;;;11.35;40.09
47897;BME280;39629;51.400;5.494;2023-04-04T15:57:42;102408.38;;;10.66;39.84
47897;BME280;39629;51.400;5.494;2023-04-04T16:02:43;102405.56;;;10.56;40.48
47897;BME280;39629;51.400;5.494;2023-04-04T16:07:46;102401.34;;;10.65;41.49
47897;BME280;39629;51.400;5.494;2023-04-04T16:12:48;102405.16;;;10.39;40.27
47897;BME280;39629;51.400;5.494;2023-04-04T16:17:49;102399.91;;;10.41;41.32
47897;BME280;39629;51.400;5.494;2023-04-04T16:22:54;102398.75;;;9.92;40.78
47897;BME280;39629;51.400;5.494;2023-04-04T16:27:56;102384.22;;;10.44;44.62
47897;BME280;39629;51.400;5.494;2023-04-04T16:32:57;102392.59;;;9.91;42.60
47897;BME280;39629;51.400;5.494;2023-04-04T16:38:00;102377.56;;;10.22;43.87
47897;BME280;39629;51.400;5.494;2023-04-04T16:43:02;102376.56;;;10.17;45.13
47897;BME280;39629;51.400;5.494;2023-04-04T16:48:03;102378.31;;;9.81;42.83
47897;BME280;39629;51.400;5.494;2023-04-04T16:53:06;102386.16;;;9.78;44.65
47897;BME280;39629;51.400;5.494;2023-04-04T16:58:08;102389.19;;;9.60;43.81
47897;BME280;39629;51.400;5.494;2023-04-04T17:03:09;102388.09;;;9.52;45.13
47897;BME280;39629;51.400;5.494;2023-04-04T17:08:12;102376.69;;;9.50;44.34
47897;BME280;39629;51.400;5.494;2023-04-04T17:13:14;102377.94;;;9.32;46.09
47897;BME280;39629;51.400;5.494;2023-04-04T17:18:15;102368.75;;;9.15;43.31
47897;BME280;39629;51.400;5.494;2023-04-04T17:23:18;102369.66;;;9.17;45.17
47897;BME280;39629;51.400;5.494;2023-04-04T17:28:20;102366.31;;;9.23;49.68
47897;BME280;39629;51.400;5.494;2023-04-04T17:33:21;102363.88;;;8.97;48.60
47897;BME280;39629;51.400;5.494;2023-04-04T17:38:24;102367.06;;;8.88;47.80
47897;BME280;39629;51.400;5.494;2023-04-04T17:43:26;102359.81;;;8.79;51.77
47897;BME280;39629;51.400;5.494;2023-04-04T17:48:29;102372.44;;;8.62;51.18
47897;BME280;39629;51.400;5.494;2023-04-04T17:53:34;102371.03;;;8.45;49.85
47897;BME280;39629;51.400;5.494;2023-04-04T17:58:35;102370.63;;;8.31;49.03
47897;BME280;39629;51.400;5.494;2023-04-04T18:03:37;102369.41;;;8.20;49.41
47897;BME280;39629;51.400;5.494;2023-04-04T18:08:40;102373.59;;;8.14;48.74
47897;BME280;39629;51.400;5.494;2023-04-04T18:13:42;102373.97;;;7.99;54.00
47897;BME280;39629;51.400;5.494;2023-04-04T18:18:44;102378.72;;;7.84;53.22
47897;BME280;39629;51.400;5.494;2023-04-04T18:23:47;102365.44;;;7.78;49.66
47897;BME280;39629;51.400;5.494;2023-04-04T18:28:48;102369.44;;;7.66;53.23
47897;BME280;39629;51.400;5.494;2023-04-04T18:33:50;102364.66;;;7.55;51.58
47897;BME280;39629;51.400;5.494;2023-04-04T18:38:53;102383.72;;;7.50;51.83
47897;BME280;39629;51.400;5.494;2023-04-04T18:43:54;102377.84;;;7.32;55.87
47897;BME280;39629;51.400;5.494;2023-04-04T18:48:56;102376.19;;;7.10;59.38
47897;BME280;39629;51.400;5.494;2023-04-04T18:53:59;102382.41;;;6.89;63.42
47897;BME280;39629;51.400;5.494;2023-04-04T18:59:00;102388.69;;;6.47;75.90
47897;BME280;39629;51.400;5.494;2023-04-04T19:04:02;102391.97;;;6.21;76.24
47897;BME280;39629;51.400;5.494;2023-04-04T19:09:08;102392.19;;;6.04;84.20
47897;BME280;39629;51.400;5.494;2023-04-04T19:14:10;102386.31;;;5.68;91.15
47897;BME280;39629;51.400;5.494;2023-04-04T19:19:11;102395.47;;;5.58;100.00
47897;BME280;39629;51.400;5.494;2023-04-04T19:24:14;102395.69;;;5.41;100.00
47897;BME280;39629;51.400;5.494;2023-04-04T19:29:19;102396.84;;;5.28;100.00
47897;BME280;39629;51.400;5.494;2023-04-04T19:34:20;102391.28;;;5.21;100.00
47897;BME280;39629;51.400;5.494;2023-04-04T19:39:30;102403.78;;;5.08;100.00
47897;BME280;39629;51.400;5.494;2023-04-04T19:44:34;102403.56;;;4.84;100.00
47897;BME280;39629;51.400;5.494;2023-04-04T19:49:36;102403.34;;;4.80;100.00
47897;BME280;39629;51.400;5.494;2023-04-04T19:54:41;102407.38;;;4.73;100.00
47897;BME280;39629;51.400;5.494;2023-04-04T19:59:55;102408.69;;;4.63;100.00
47897;BME280;39629;51.400;5.494;2023-04-04T20:04:58;102405.22;;;4.45;100.00
47897;BME280;39629;51.400;5.494;2023-04-04T20:10:01;102409.78;;;4.31;100.00
47897;BME280;39629;51.400;5.494;2023-04-04T20:15:13;102396.88;;;4.34;100.00
47897;BME280;39629;51.400;5.494;2023-04-04T20:20:45;102398.50;;;4.14;100.00
47897;BME280;39629;51.400;5.494;2023-04-04T20:25:49;102396.50;;;4.08;100.00
47897;BME280;39629;51.400;5.494;2023-04-04T20:30:52;102394.34;;;3.99;100.00
47897;BME280;39629;51.400;5.494;2023-04-04T20:35:54;102394.25;;;3.80;100.00
47897;BME280;39629;51.400;5.494;2023-04-04T20:40:57;102386.97;;;3.72;100.00
47897;BME280;39629;51.400;5.494;2023-04-04T20:45:58;102386.34;;;3.60;100.00
47897;BME280;39629;51.400;5.494;2023-04-04T20:51:00;102392.56;;;3.46;100.00
47897;BME280;39629;51.400;5.494;2023-04-04T20:56:37;102394.03;;;3.40;100.00
47897;BME280;39629;51.400;5.494;2023-04-04T21:01:39;102395.25;;;3.31;100.00
47897;BME280;39629;51.400;5.494;2023-04-04T21:06:41;102392.59;;;3.13;100.00
47897;BME280;39629;51.400;5.494;2023-04-04T21:11:44;102392.25;;;3.06;100.00
47897;BME280;39629;51.400;5.494;2023-04-04T21:16:45;102395.03;;;2.93;100.00
47897;BME280;39629;51.400;5.494;2023-04-04T21:21:47;102386.78;;;2.69;100.00
47897;BME280;39629;51.400;5.494;2023-04-04T21:26:50;102389.13;;;2.48;100.00
47897;BME280;39629;51.400;5.494;2023-04-04T21:31:53;102391.47;;;2.43;100.00
47897;BME280;39629;51.400;5.494;2023-04-04T21:36:59;102399.38;;;2.30;100.00
47897;BME280;39629;51.400;5.494;2023-04-04T21:42:03;102402.16;;;2.18;100.00
47897;BME280;39629;51.400;5.494;2023-04-04T21:47:04;102400.25;;;2.14;100.00
47897;BME280;39629;51.400;5.494;2023-04-04T21:52:06;102391.84;;;1.88;100.00
47897;BME280;39629;51.400;5.494;2023-04-04T21:57:09;102386.19;;;1.80;100.00
47897;BME280;39629;51.400;5.494;2023-04-04T22:02:10;102390.31;;;1.77;100.00
47897;BME280;39629;51.400;5.494;2023-04-04T22:07:12;102384.25;;;1.61;100.00
47897;BME280;39629;51.400;5.494;2023-04-04T22:12:15;102379.84;;;1.45;100.00
47897;BME280;39629;51.400;5.494;2023-04-04T22:17:18;102373.28;;;1.22;100.00
47897;BME280;39629;51.400;5.494;2023-04-04T22:22:23;102358.25;;;1.16;100.00
47897;BME280;39629;51.400;5.494;2023-04-04T22:27:31;102357.72;;;1.07;100.00
47897;BME280;39629;51.400;5.494;2023-04-04T22:32:33;102349.28;;;0.96;100.00
47897;BME280;39629;51.400;5.494;2023-04-04T22:37:34;102341.94;;;1.04;100.00
47897;BME280;39629;51.400;5.494;2023-04-04T22:42:39;102347.97;;;0.75;100.00
47897;BME280;39629;51.400;5.494;2023-04-04T22:47:40;102345.56;;;0.78;100.00
47897;BME280;39629;51.400;5.494;2023-04-04T22:52:46;102346.38;;;0.77;100.00
47897;BME280;39629;51.400;5.494;2023-04-04T22:57:49;102337.69;;;0.76;100.00
47897;BME280;39629;51.400;5.494;2023-04-04T23:02:51;102325.31;;;0.57;100.00
47897;BME280;39629;51.400;5.494;2023-04-04T23:07:52;102338.34;;;0.59;100.00
47897;BME280;39629;51.400;5.494;2023-04-04T23:12:55;102337.50;;;0.45;100.00
47897;BME280;39629;51.400;5.494;2023-04-04T23:17:57;102329.06;;;0.34;100.00
47897;BME280;39629;51.400;5.494;2023-04-04T23:22:59;102335.53;;;0.27;100.00
47897;BME280;39629;51.400;5.494;2023-04-04T23:28:01;102334.16;;;0.19;100.00
47897;BME280;39629;51.400;5.494;2023-04-04T23:33:03;102331.47;;;0.18;100.00
47897;BME280;39629;51.400;5.494;2023-04-04T23:38:05;102317.66;;;0.04;100.00
47897;BME280;39629;51.400;5.494;2023-04-04T23:43:12;102329.19;;;-0.05;100.00
47897;BME280;39629;51.400;5.494;2023-04-04T23:48:13;102316.88;;;-0.22;100.00
47897;BME280;39629;51.400;5.494;2023-04-04T23:53:15;102316.38;;;-0.30;100.00
47897;BME280;39629;51.400;5.494;2023-04-04T23:58:17;102323.44;;;-0.54;100.00
